Time;durP1;ratioP1;P1;durP2;ratioP2;P2;SDS_P1;SDS_P2;PMS_P1;PMS_P2;Temp;Humidity;BMP_temperature;BMP_pressure;BME280_temperature;BME280_humidity;BME280_pressure;Samples;Min_cycle;Max_cycle;Signal;HPM_P1;HPM_P2
2022/03/23 00:02:36;;;;;;;6.32;5.32;;;;;;;;;;20151986;29;20048;-85
2022/03/23 00:12:39;;;;;;;7.38;5.88;;;;;;;;;;20146700;29;20224;-85
2022/03/23 00:22:43;;;;;;;6.95;5.80;;;;;;;;;;20155417;29;20428;-85
2022/03/23 00:32:46;;;;;;;7.20;5.95;;;;;;;;;;20142684;29;20092;-85
2022/03/23 00:42:49;;;;;;;5.82;5.22;;;;;;;;;;20153622;29;20067;-82
2022/03/23 00:52:53;;;;;;;6.90;5.85;;;;;;;;;;20157756;29;20048;-85
2022/03/23 01:02:56;;;;;;;6.60;5.68;;;;;;;;;;20140722;29;20041;-85
2022/03/23 01:12:59;;;;;;;6.72;6.00;;;;;;;;;;20148787;29;20057;-85
2022/03/23 01:23:03;;;;;;;6.45;5.70;;;;;;;;;;20142963;29;20139;-86
2022/03/23 01:33:07;;;;;;;6.82;6.13;;;;;;;;;;20138955;29;20143;-87
2022/03/23 01:43:11;;;;;;;7.88;5.88;;;;;;;;;;20138951;29;20052;-86
2022/03/23 01:53:17;;;;;;;7.72;6.18;;;;;;;;;;20169211;29;20041;-86
2022/03/23 02:03:20;;;;;;;6.80;6.03;;;;;;;;;;20140327;29;20420;-86
2022/03/23 02:13:24;;;;;;;8.13;6.53;;;;;;;;;;20115378;29;20056;-84
2022/03/23 02:23:27;;;;;;;7.93;6.60;;;;;;;;;;20137964;29;20449;-85
2022/03/23 02:33:29;;;;;;;7.68;6.55;;;;;;;;;;20138232;29;20128;-85
2022/03/23 02:43:32;;;;;;;8.45;6.35;;;;;;;;;;20136190;29;20141;-85
2022/03/23 03:03:55;;;;;;;7.47;6.50;;;;;;;;;;20150134;29;20064;-83
2022/03/23 03:13:59;;;;;;;7.38;6.22;;;;;;;;;;20134988;29;20079;-85
2022/03/23 03:24:03;;;;;;;7.47;6.10;;;;;;;;;;20150308;29;20453;-85
2022/03/23 03:34:06;;;;;;;7.15;6.15;;;;;;;;;;20141574;29;20037;-84
2022/03/23 03:44:11;;;;;;;6.68;5.97;;;;;;;;;;20149058;29;20096;-81
2022/03/23 03:54:14;;;;;;;8.07;6.70;;;;;;;;;;20149502;29;20114;-85
2022/03/23 04:04:19;;;;;;;7.50;6.27;;;;;;;;;;20165468;29;20045;-85
2022/03/23 04:14:21;;;;;;;7.40;6.35;;;;;;;;;;20146920;29;20400;-85
2022/03/23 04:24:24;;;;;;;7.10;6.03;;;;;;;;;;20175479;29;20093;-85
2022/03/23 04:34:28;;;;;;;7.50;5.93;;;;;;;;;;20164169;29;20065;-85
2022/03/23 04:44:31;;;;;;;8.77;6.30;;;;;;;;;;20166615;29;20076;-85
2022/03/23 04:54:34;;;;;;;7.20;5.80;;;;;;;;;;20174682;29;20057;-85
2022/03/23 05:04:37;;;;;;;9.77;7.05;;;;;;;;;;20147722;29;20065;-85
2022/03/23 05:14:47;;;;;;;9.10;7.45;;;;;;;;;;20147253;29;20060;-84
2022/03/23 05:24:50;;;;;;;8.43;7.03;;;;;;;;;;20160127;29;20060;-84
2022/03/23 05:34:52;;;;;;;10.38;7.50;;;;;;;;;;20155500;29;20045;-81
2022/03/23 05:44:54;;;;;;;8.80;6.70;;;;;;;;;;20145287;29;20064;-82
2022/03/23 05:54:56;;;;;;;7.72;6.22;;;;;;;;;;20160537;29;20049;-81
2022/03/23 06:05:01;;;;;;;7.60;5.90;;;;;;;;;;20147047;29;20072;-82
2022/03/23 06:15:05;;;;;;;5.93;4.97;;;;;;;;;;20143804;29;20059;-82
2022/03/23 06:25:08;;;;;;;7.07;5.57;;;;;;;;;;20144011;29;20056;-81
2022/03/23 06:35:10;;;;;;;8.40;5.72;;;;;;;;;;20142946;29;20049;-82
2022/03/23 06:45:13;;;;;;;7.97;5.72;;;;;;;;;;20157862;29;20136;-86
2022/03/23 06:55:16;;;;;;;7.25;5.80;;;;;;;;;;20157269;29;20056;-87
2022/03/23 07:05:20;;;;;;;8.50;6.00;;;;;;;;;;20157015;29;20053;-87
2022/03/23 07:15:26;;;;;;;7.55;6.20;;;;;;;;;;20156694;29;20045;-87
2022/03/23 07:25:29;;;;;;;6.47;5.68;;;;;;;;;;20170919;29;20049;-86
2022/03/23 07:35:34;;;;;;;7.10;5.75;;;;;;;;;;20170894;29;20492;-87
2022/03/23 07:45:38;;;;;;;7.03;5.57;;;;;;;;;;20148976;29;20519;-86
2022/03/23 07:55:43;;;;;;;6.38;5.60;;;;;;;;;;20154643;29;20058;-88
2022/03/23 08:05:46;;;;;;;6.07;5.22;;;;;;;;;;20153990;29;20148;-88
2022/03/23 08:15:48;;;;;;;5.68;4.97;;;;;;;;;;20152984;29;20055;-86
2022/03/23 08:25:52;;;;;;;4.90;4.40;;;;;;;;;;20152070;29;20392;-86
2022/03/23 08:35:57;;;;;;;5.00;4.35;;;;;;;;;;20174672;29;20112;-88
2022/03/23 08:46:00;;;;;;;5.82;4.95;;;;;;;;;;20159516;29;20255;-87
2022/03/23 08:56:03;;;;;;;5.65;4.70;;;;;;;;;;20149343;29;20084;-87
2022/03/23 09:06:06;;;;;;;6.10;5.00;;;;;;;;;;20164309;29;20084;-87
2022/03/23 09:16:12;;;;;;;7.00;5.15;;;;;;;;;;20148968;29;20049;-87
2022/03/23 09:26:15;;;;;;;5.00;4.50;;;;;;;;;;20163527;29;20157;-88
2022/03/23 09:46:39;;;;;;;5.28;4.65;;;;;;;;;;20163843;29;20056;-87
2022/03/23 09:56:49;;;;;;;5.45;4.30;;;;;;;;;;20160970;29;20080;-88
2022/03/23 10:07:02;;;;;;;5.82;4.40;;;;;;;;;;20192436;29;20121;-88
2022/03/23 10:17:23;;;;;;;5.55;4.10;;;;;;;;;;20144511;29;20148;-88
2022/03/23 10:27:31;;;;;;;7.77;4.43;;;;;;;;;;20174437;29;20128;-89
2022/03/23 10:37:34;;;;;;;7.35;4.28;;;;;;;;;;20174181;29;20057;-89
2022/03/23 10:47:39;;;;;;;5.93;4.20;;;;;;;;;;20142456;29;20057;-84
2022/03/23 10:57:49;;;;;;;5.15;4.20;;;;;;;;;;20157101;29;20057;-85
2022/03/23 11:08:05;;;;;;;7.82;4.35;;;;;;;;;;20156849;29;20076;-83
2022/03/23 11:18:12;;;;;;;5.10;4.00;;;;;;;;;;20155541;29;20045;-83
2022/03/23 11:28:17;;;;;;;4.65;3.95;;;;;;;;;;20155666;29;20124;-83
2022/03/23 11:38:27;;;;;;;4.60;3.87;;;;;;;;;;20155223;29;20055;-83
2022/03/23 11:48:35;;;;;;;5.10;3.90;;;;;;;;;;20108040;29;20057;-83
2022/03/23 11:58:39;;;;;;;6.87;4.90;;;;;;;;;;20093728;29;20568;-83
2022/03/23 12:08:58;;;;;;;4.65;4.00;;;;;;;;;;20092767;29;20128;-83
2022/03/23 12:19:03;;;;;;;4.38;3.97;;;;;;;;;;20107505;29;20046;-83
2022/03/23 12:29:26;;;;;;;5.80;4.60;;;;;;;;;;20080023;29;20143;-81
2022/03/23 12:39:39;;;;;;;5.07;3.70;;;;;;;;;;20103921;29;20072;-83
2022/03/23 13:00:37;;;;;;;4.47;3.88;;;;;;;;;;20103611;29;20575;-83
2022/03/23 13:10:53;;;;;;;5.90;4.03;;;;;;;;;;20103106;29;20050;-83
2022/03/23 13:20:57;;;;;;;11.85;4.55;;;;;;;;;;20087746;29;20053;-83
2022/03/23 13:31:00;;;;;;;6.70;3.72;;;;;;;;;;20116854;29;20137;-83
2022/03/23 13:51:32;;;;;;;7.25;4.07;;;;;;;;;;20085778;29;20053;-83
2022/03/23 14:01:44;;;;;;;7.63;4.10;;;;;;;;;;20097187;29;20084;-83
2022/03/23 14:11:52;;;;;;;6.80;4.00;;;;;;;;;;20096956;29;20244;-83
2022/03/23 14:22:19;;;;;;;6.40;3.58;;;;;;;;;;20097378;29;20113;-83
2022/03/23 14:33:02;;;;;;;7.40;3.88;;;;;;;;;;20098586;29;20136;-84
2022/03/23 14:43:36;;;;;;;8.38;3.47;;;;;;;;;;20116897;29;20148;-83
2022/03/23 14:53:41;;;;;;;6.22;3.30;;;;;;;;;;20091933;29;20420;-83
2022/03/23 15:03:46;;;;;;;6.38;3.50;;;;;;;;;;20095307;29;20493;-83
2022/03/23 15:13:51;;;;;;;5.55;3.00;;;;;;;;;;20095166;29;20141;-83
2022/03/23 15:23:57;;;;;;;5.13;2.95;;;;;;;;;;20120339;29;20041;-83
2022/03/23 15:34:09;;;;;;;5.57;2.92;;;;;;;;;;20141849;29;20061;-83
2022/03/23 15:44:13;;;;;;;5.28;3.13;;;;;;;;;;20155661;29;20056;-83
2022/03/23 15:54:19;;;;;;;5.07;2.67;;;;;;;;;;20153955;29;20471;-85
2022/03/23 16:04:25;;;;;;;6.07;3.22;;;;;;;;;;20158490;29;20214;-82
2022/03/23 16:14:32;;;;;;;5.10;2.22;;;;;;;;;;20168897;29;20048;-82
2022/03/23 16:24:36;;;;;;;4.47;2.60;;;;;;;;;;20167963;29;20059;-82
2022/03/23 16:34:46;;;;;;;4.40;2.72;;;;;;;;;;20167972;29;20056;-82
2022/03/23 16:44:53;;;;;;;5.00;2.75;;;;;;;;;;20152890;29;20057;-82
2022/03/23 16:55:01;;;;;;;4.30;2.35;;;;;;;;;;20181493;29;20053;-82
2022/03/23 17:15:30;;;;;;;5.03;2.55;;;;;;;;;;20163271;29;20534;-82
2022/03/23 17:25:38;;;;;;;3.75;2.40;;;;;;;;;;20149879;29;20053;-82
2022/03/23 17:35:54;;;;;;;6.22;2.38;;;;;;;;;;20148747;29;20140;-82
2022/03/23 17:46:01;;;;;;;5.30;2.83;;;;;;;;;;20170984;29;20468;-80
2022/03/23 17:56:09;;;;;;;4.90;2.42;;;;;;;;;;20142001;29;20088;-79
2022/03/23 18:06:15;;;;;;;4.00;2.30;;;;;;;;;;20132599;29;20452;-86
2022/03/23 18:16:24;;;;;;;3.72;2.55;;;;;;;;;;20157455;29;20053;-82
2022/03/23 18:26:30;;;;;;;3.63;2.10;;;;;;;;;;20142729;29;20091;-82
2022/03/23 18:36:37;;;;;;;5.05;2.60;;;;;;;;;;20179246;29;20057;-82
2022/03/23 18:46:42;;;;;;;;;;;;;;;;;;20218773;29;20384;-83
2022/03/23 18:56:47;;;;;;;4.22;2.00;;;;;;;;;;20247884;29;19940;-82
2022/03/23 19:06:54;;;;;;;;;;;;;;;;;;20225196;29;20045;-82
2022/03/23 19:16:58;;;;;;;3.95;2.65;;;;;;;;;;20150877;29;20378;-83
2022/03/23 19:27:03;;;;;;;4.07;2.70;;;;;;;;;;20163311;29;20144;-82
2022/03/23 19:37:10;;;;;;;4.07;2.50;;;;;;;;;;20144481;29;20056;-81
2022/03/23 19:47:19;;;;;;;4.90;3.10;;;;;;;;;;20154039;29;20045;-82
2022/03/23 19:57:25;;;;;;;5.10;3.10;;;;;;;;;;20153511;29;20045;-82
2022/03/23 20:07:29;;;;;;;4.82;2.70;;;;;;;;;;20148377;29;20572;-82
2022/03/23 20:17:37;;;;;;;6.20;2.80;;;;;;;;;;20147513;29;20053;-83
2022/03/23 20:27:43;;;;;;;3.67;2.60;;;;;;;;;;20159124;29;20057;-83
2022/03/23 20:37:48;;;;;;;4.30;2.97;;;;;;;;;;20145433;29;20045;-82
2022/03/23 20:47:51;;;;;;;4.68;3.30;;;;;;;;;;20157443;29;20070;-82
2022/03/23 20:57:59;;;;;;;5.43;2.90;;;;;;;;;;20147977;29;20381;-81
2022/03/23 21:08:17;;;;;;;4.95;3.53;;;;;;;;;;20149984;29;20308;-81
2022/03/23 21:18:22;;;;;;;4.15;3.50;;;;;;;;;;20158856;29;20546;-82
2022/03/23 21:28:27;;;;;;;6.07;3.65;;;;;;;;;;20148751;29;20105;-82
2022/03/23 21:38:33;;;;;;;4.45;3.53;;;;;;;;;;20167179;29;20080;-82
2022/03/23 21:48:38;;;;;;;;;;;;;;;;;;20172809;29;20049;-82
2022/03/23 21:58:44;;;;;;;5.63;4.00;;;;;;;;;;20156734;29;19932;-82
2022/03/23 22:08:49;;;;;;;6.47;4.00;;;;;;;;;;20140729;29;20116;-82
2022/03/23 22:18:54;;;;;;;4.60;3.77;;;;;;;;;;20139832;29;20064;-82
2022/03/23 22:29:00;;;;;;;5.18;3.63;;;;;;;;;;20153386;29;20045;-82
2022/03/23 22:39:06;;;;;;;5.82;3.92;;;;;;;;;;20156305;29;20105;-82
2022/03/23 22:49:12;;;;;;;4.22;3.63;;;;;;;;;;20142437;29;20096;-82
2022/03/23 22:59:15;;;;;;;4.75;3.75;;;;;;;;;;20139536;29;20539;-82
2022/03/23 23:09:19;;;;;;;5.45;4.28;;;;;;;;;;20151987;29;20045;-82
2022/03/23 23:19:23;;;;;;;4.90;4.22;;;;;;;;;;20138689;29;20049;-81
2022/03/23 23:29:39;;;;;;;5.72;4.55;;;;;;;;;;20152296;29;20045;-82
2022/03/23 23:39:44;;;;;;;6.13;4.53;;;;;;;;;;20159667;29;20052;-82
2022/03/23 23:49:48;;;;;;;4.45;4.00;;;;;;;;;;20180048;29;20057;-82
2022/03/23 23:59:55;;;;;;;5.97;4.90;;;;;;;;;;20151082;29;20487;-81
